sensor_id;sensor_type;location;lat;lon;timestamp;temperature;humidity
70475;DHT22;57944;48.722;9.316;2023-01-29T00:00:39;0.00;99.90
70475;DHT22;57944;48.722;9.316;2023-01-29T00:03:13;-0.10;99.90
70475;DHT22;57944;48.722;9.316;2023-01-29T00:05:44;-0.10;99.90
70475;DHT22;57944;48.722;9.316;2023-01-29T00:08:14;-0.10;99.90
70475;DHT22;57944;48.722;9.316;2023-01-29T00:10:45;-0.20;99.90
70475;DHT22;57944;48.722;9.316;2023-01-29T00:13:16;-0.10;99.90
70475;DHT22;57944;48.722;9.316;2023-01-29T00:15:52;-0.10;99.90
70475;DHT22;57944;48.722;9.316;2023-01-29T00:18:26;-0.10;99.90
70475;DHT22;57944;48.722;9.316;2023-01-29T00:20:57;-0.20;99.90
70475;DHT22;57944;48.722;9.316;2023-01-29T00:23:27;-0.10;99.90
70475;DHT22;57944;48.722;9.316;2023-01-29T00:25:58;-0.10;99.90
70475;DHT22;57944;48.722;9.316;2023-01-29T00:28:29;-0.20;99.90
70475;DHT22;57944;48.722;9.316;2023-01-29T00:31:06;-0.20;99.90
70475;DHT22;57944;48.722;9.316;2023-01-29T00:33:40;-0.20;99.90
70475;DHT22;57944;48.722;9.316;2023-01-29T00:36:12;-0.10;99.90
70475;DHT22;57944;48.722;9.316;2023-01-29T00:38:44;-0.10;99.90
70475;DHT22;57944;48.722;9.316;2023-01-29T00:41:22;-0.10;99.90
70475;DHT22;57944;48.722;9.316;2023-01-29T00:44:06;-0.10;99.90
70475;DHT22;57944;48.722;9.316;2023-01-29T00:46:49;0.00;99.90
70475;DHT22;57944;48.722;9.316;2023-01-29T00:49:22;-0.10;99.90
70475;DHT22;57944;48.722;9.316;2023-01-29T00:51:52;-0.20;99.90
70475;DHT22;57944;48.722;9.316;2023-01-29T00:54:36;-0.20;99.90
70475;DHT22;57944;48.722;9.316;2023-01-29T00:57:06;-0.20;99.90
70475;DHT22;57944;48.722;9.316;2023-01-29T00:59:36;-0.20;99.90
70475;DHT22;57944;48.722;9.316;2023-01-29T01:02:07;-0.20;99.90
70475;DHT22;57944;48.722;9.316;2023-01-29T01:04:52;-0.20;99.90
70475;DHT22;57944;48.722;9.316;2023-01-29T01:07:23;-0.20;99.90
70475;DHT22;57944;48.722;9.316;2023-01-29T01:09:54;-0.20;99.90
70475;DHT22;57944;48.722;9.316;2023-01-29T01:12:37;-0.20;99.90
70475;DHT22;57944;48.722;9.316;2023-01-29T01:15:09;-0.20;99.90
70475;DHT22;57944;48.722;9.316;2023-01-29T01:17:40;-0.20;99.90
70475;DHT22;57944;48.722;9.316;2023-01-29T01:20:14;-0.20;99.90
70475;DHT22;57944;48.722;9.316;2023-01-29T01:22:44;-0.10;99.90
70475;DHT22;57944;48.722;9.316;2023-01-29T01:25:15;-0.10;99.90
70475;DHT22;57944;48.722;9.316;2023-01-29T01:27:46;-0.20;99.90
70475;DHT22;57944;48.722;9.316;2023-01-29T01:30:16;-0.20;99.90
70475;DHT22;57944;48.722;9.316;2023-01-29T01:32:47;-0.10;99.90
70475;DHT22;57944;48.722;9.316;2023-01-29T01:35:20;-0.10;99.90
70475;DHT22;57944;48.722;9.316;2023-01-29T01:37:50;0.00;99.90
70475;DHT22;57944;48.722;9.316;2023-01-29T01:40:22;-0.10;99.90
70475;DHT22;57944;48.722;9.316;2023-01-29T01:42:55;-0.10;99.90
70475;DHT22;57944;48.722;9.316;2023-01-29T01:45:29;0.10;99.90
70475;DHT22;57944;48.722;9.316;2023-01-29T01:48:04;0.00;99.90
70475;DHT22;57944;48.722;9.316;2023-01-29T01:50:45;-0.10;99.90
70475;DHT22;57944;48.722;9.316;2023-01-29T01:53:22;-0.10;99.90
70475;DHT22;57944;48.722;9.316;2023-01-29T01:55:58;-0.20;99.90
70475;DHT22;57944;48.722;9.316;2023-01-29T01:58:37;-0.20;99.90
70475;DHT22;57944;48.722;9.316;2023-01-29T02:01:10;-0.30;99.90
70475;DHT22;57944;48.722;9.316;2023-01-29T02:03:42;-0.30;99.90
70475;DHT22;57944;48.722;9.316;2023-01-29T02:06:34;-0.20;99.90
70475;DHT22;57944;48.722;9.316;2023-01-29T02:09:24;-0.30;99.90
70475;DHT22;57944;48.722;9.316;2023-01-29T02:12:07;-0.20;99.90
70475;DHT22;57944;48.722;9.316;2023-01-29T02:14:40;-0.20;99.90
70475;DHT22;57944;48.722;9.316;2023-01-29T02:17:14;-0.10;99.90
70475;DHT22;57944;48.722;9.316;2023-01-29T02:19:52;0.00;99.90
70475;DHT22;57944;48.722;9.316;2023-01-29T02:23:01;-0.10;99.90
70475;DHT22;57944;48.722;9.316;2023-01-29T02:26:08;-0.10;99.90
70475;DHT22;57944;48.722;9.316;2023-01-29T02:28:55;0.00;99.90
70475;DHT22;57944;48.722;9.316;2023-01-29T02:31:59;-0.10;99.90
70475;DHT22;57944;48.722;9.316;2023-01-29T02:34:46;-0.10;99.90
70475;DHT22;57944;48.722;9.316;2023-01-29T02:37:39;-0.20;99.90
70475;DHT22;57944;48.722;9.316;2023-01-29T02:40:28;-0.20;99.90
70475;DHT22;57944;48.722;9.316;2023-01-29T02:43:06;-0.10;99.90
70475;DHT22;57944;48.722;9.316;2023-01-29T02:45:49;-0.10;99.90
70475;DHT22;57944;48.722;9.316;2023-01-29T02:48:35;-0.10;99.90
70475;DHT22;57944;48.722;9.316;2023-01-29T02:54:32;-0.20;99.90
70475;DHT22;57944;48.722;9.316;2023-01-29T02:57:16;-0.30;99.90
70475;DHT22;57944;48.722;9.316;2023-01-29T02:59:54;-0.30;99.90
70475;DHT22;57944;48.722;9.316;2023-01-29T03:02:34;-0.30;99.90
70475;DHT22;57944;48.722;9.316;2023-01-29T03:05:12;-0.30;99.90
70475;DHT22;57944;48.722;9.316;2023-01-29T03:07:51;-0.40;99.90
70475;DHT22;57944;48.722;9.316;2023-01-29T03:10:34;-0.40;99.90
70475;DHT22;57944;48.722;9.316;2023-01-29T03:13:21;-0.40;99.90
70475;DHT22;57944;48.722;9.316;2023-01-29T03:16:03;-0.30;99.90
70475;DHT22;57944;48.722;9.316;2023-01-29T03:18:50;-0.20;99.90
70475;DHT22;57944;48.722;9.316;2023-01-29T03:21:33;-0.10;99.90
70475;DHT22;57944;48.722;9.316;2023-01-29T03:24:34;-0.20;99.90
70475;DHT22;57944;48.722;9.316;2023-01-29T03:27:25;-0.30;99.90
70475;DHT22;57944;48.722;9.316;2023-01-29T03:30:13;-0.30;99.90
70475;DHT22;57944;48.722;9.316;2023-01-29T03:33:11;-0.30;99.90
70475;DHT22;57944;48.722;9.316;2023-01-29T03:35:50;-0.40;99.90
70475;DHT22;57944;48.722;9.316;2023-01-29T03:38:27;-0.50;99.90
70475;DHT22;57944;48.722;9.316;2023-01-29T03:41:04;-0.50;99.90
70475;DHT22;57944;48.722;9.316;2023-01-29T03:43:46;-0.50;99.90
70475;DHT22;57944;48.722;9.316;2023-01-29T03:46:25;-0.50;99.90
70475;DHT22;57944;48.722;9.316;2023-01-29T03:49:05;-0.50;99.90
70475;DHT22;57944;48.722;9.316;2023-01-29T03:51:52;-0.40;99.90
70475;DHT22;57944;48.722;9.316;2023-01-29T03:54:32;-0.10;99.90
70475;DHT22;57944;48.722;9.316;2023-01-29T03:57:16;0.00;99.90
70475;DHT22;57944;48.722;9.316;2023-01-29T03:59:58;0.00;99.90
70475;DHT22;57944;48.722;9.316;2023-01-29T04:02:57;0.10;99.90
70475;DHT22;57944;48.722;9.316;2023-01-29T04:05:42;0.10;99.90
70475;DHT22;57944;48.722;9.316;2023-01-29T04:08:27;0.30;99.90
70475;DHT22;57944;48.722;9.316;2023-01-29T04:11:06;0.30;99.90
70475;DHT22;57944;48.722;9.316;2023-01-29T04:13:42;0.40;99.90
70475;DHT22;57944;48.722;9.316;2023-01-29T04:16:19;0.40;99.90
70475;DHT22;57944;48.722;9.316;2023-01-29T04:19:09;0.40;99.90
70475;DHT22;57944;48.722;9.316;2023-01-29T04:21:42;0.40;99.90
70475;DHT22;57944;48.722;9.316;2023-01-29T04:24:16;0.20;99.90
70475;DHT22;57944;48.722;9.316;2023-01-29T04:26:55;0.10;99.90
70475;DHT22;57944;48.722;9.316;2023-01-29T04:29:41;0.00;99.90
70475;DHT22;57944;48.722;9.316;2023-01-29T04:32:26;-0.10;99.90
70475;DHT22;57944;48.722;9.316;2023-01-29T04:35:08;-0.20;99.90
70475;DHT22;57944;48.722;9.316;2023-01-29T04:37:59;-0.20;99.90
70475;DHT22;57944;48.722;9.316;2023-01-29T04:40:50;-0.20;99.90
70475;DHT22;57944;48.722;9.316;2023-01-29T04:43:27;-0.30;99.90
70475;DHT22;57944;48.722;9.316;2023-01-29T04:46:12;-0.30;99.90
70475;DHT22;57944;48.722;9.316;2023-01-29T04:48:58;-0.20;99.90
70475;DHT22;57944;48.722;9.316;2023-01-29T04:51:46;-0.10;99.90
70475;DHT22;57944;48.722;9.316;2023-01-29T04:54:28;0.00;99.90
70475;DHT22;57944;48.722;9.316;2023-01-29T04:57:12;-0.20;99.90
70475;DHT22;57944;48.722;9.316;2023-01-29T04:59:56;-0.30;99.90
70475;DHT22;57944;48.722;9.316;2023-01-29T05:02:33;-0.30;99.90
70475;DHT22;57944;48.722;9.316;2023-01-29T05:05:07;-0.30;99.90
70475;DHT22;57944;48.722;9.316;2023-01-29T05:07:41;-0.40;99.90
70475;DHT22;57944;48.722;9.316;2023-01-29T05:10:14;-0.50;99.90
70475;DHT22;57944;48.722;9.316;2023-01-29T05:12:53;-0.60;99.90
70475;DHT22;57944;48.722;9.316;2023-01-29T05:15:34;-0.50;99.90
70475;DHT22;57944;48.722;9.316;2023-01-29T05:18:07;-0.50;99.90
70475;DHT22;57944;48.722;9.316;2023-01-29T05:20:39;-0.40;99.90
70475;DHT22;57944;48.722;9.316;2023-01-29T05:23:15;-0.50;99.90
70475;DHT22;57944;48.722;9.316;2023-01-29T05:25:47;-0.40;99.90
70475;DHT22;57944;48.722;9.316;2023-01-29T05:28:21;-0.40;99.90
70475;DHT22;57944;48.722;9.316;2023-01-29T05:30:50;-0.50;99.90
70475;DHT22;57944;48.722;9.316;2023-01-29T05:33:24;-0.40;99.90
70475;DHT22;57944;48.722;9.316;2023-01-29T05:35:57;-0.20;99.90
70475;DHT22;57944;48.722;9.316;2023-01-29T05:38:28;-0.30;99.90
70475;DHT22;57944;48.722;9.316;2023-01-29T05:40:58;-0.40;99.90
70475;DHT22;57944;48.722;9.316;2023-01-29T05:43:31;-0.50;99.90
70475;DHT22;57944;48.722;9.316;2023-01-29T05:46:01;-0.50;99.90
70475;DHT22;57944;48.722;9.316;2023-01-29T05:48:33;-0.50;99.90
70475;DHT22;57944;48.722;9.316;2023-01-29T05:51:04;-0.50;99.90
70475;DHT22;57944;48.722;9.316;2023-01-29T05:53:34;-0.60;99.90
70475;DHT22;57944;48.722;9.316;2023-01-29T05:56:05;-0.70;99.90
70475;DHT22;57944;48.722;9.316;2023-01-29T05:58:38;-0.70;99.90
70475;DHT22;57944;48.722;9.316;2023-01-29T06:01:10;-0.70;99.90
70475;DHT22;57944;48.722;9.316;2023-01-29T06:03:42;-0.60;99.90
70475;DHT22;57944;48.722;9.316;2023-01-29T06:06:13;-0.40;99.90
70475;DHT22;57944;48.722;9.316;2023-01-29T06:08:43;-0.50;99.90
70475;DHT22;57944;48.722;9.316;2023-01-29T06:11:14;-0.50;99.90
70475;DHT22;57944;48.722;9.316;2023-01-29T06:13:47;-0.40;99.90
70475;DHT22;57944;48.722;9.316;2023-01-29T06:16:18;-0.20;99.90
70475;DHT22;57944;48.722;9.316;2023-01-29T06:18:48;-0.30;99.90
70475;DHT22;57944;48.722;9.316;2023-01-29T06:21:18;-0.20;99.90
70475;DHT22;57944;48.722;9.316;2023-01-29T06:23:51;-0.20;99.90
70475;DHT22;57944;48.722;9.316;2023-01-29T06:26:21;-0.20;99.90
70475;DHT22;57944;48.722;9.316;2023-01-29T06:28:54;-0.50;99.90
70475;DHT22;57944;48.722;9.316;2023-01-29T06:31:24;-0.40;99.90
70475;DHT22;57944;48.722;9.316;2023-01-29T06:34:04;-0.50;99.90
70475;DHT22;57944;48.722;9.316;2023-01-29T06:36:35;-0.50;99.90
70475;DHT22;57944;48.722;9.316;2023-01-29T06:39:05;-0.50;99.90
70475;DHT22;57944;48.722;9.316;2023-01-29T06:41:36;-0.50;99.90
70475;DHT22;57944;48.722;9.316;2023-01-29T06:44:08;-0.50;99.90
70475;DHT22;57944;48.722;9.316;2023-01-29T06:46:38;-0.50;99.90
70475;DHT22;57944;48.722;9.316;2023-01-29T06:49:08;-0.60;99.90
70475;DHT22;57944;48.722;9.316;2023-01-29T06:51:39;-0.60;99.90
70475;DHT22;57944;48.722;9.316;2023-01-29T06:54:09;-0.70;99.90
70475;DHT22;57944;48.722;9.316;2023-01-29T06:56:39;-0.70;99.90
70475;DHT22;57944;48.722;9.316;2023-01-29T06:59:13;-0.80;99.90
70475;DHT22;57944;48.722;9.316;2023-01-29T07:01:43;-0.80;99.90
70475;DHT22;57944;48.722;9.316;2023-01-29T07:04:13;-0.70;99.90
70475;DHT22;57944;48.722;9.316;2023-01-29T07:06:44;-0.60;99.90
70475;DHT22;57944;48.722;9.316;2023-01-29T07:09:14;-0.60;99.90
70475;DHT22;57944;48.722;9.316;2023-01-29T07:11:45;-0.60;99.90
70475;DHT22;57944;48.722;9.316;2023-01-29T07:14:18;-0.70;99.90
70475;DHT22;57944;48.722;9.316;2023-01-29T07:16:48;-0.50;99.90
70475;DHT22;57944;48.722;9.316;2023-01-29T07:19:18;-0.50;99.90
70475;DHT22;57944;48.722;9.316;2023-01-29T07:21:49;-0.40;99.90
70475;DHT22;57944;48.722;9.316;2023-01-29T07:24:20;-0.30;99.90
70475;DHT22;57944;48.722;9.316;2023-01-29T07:26:50;-0.20;99.90
70475;DHT22;57944;48.722;9.316;2023-01-29T07:29:24;-0.10;99.90
70475;DHT22;57944;48.722;9.316;2023-01-29T07:31:54;0.10;99.90
70475;DHT22;57944;48.722;9.316;2023-01-29T07:34:24;0.20;99.90
70475;DHT22;57944;48.722;9.316;2023-01-29T07:36:54;0.20;99.90
70475;DHT22;57944;48.722;9.316;2023-01-29T07:39:25;0.10;99.90
70475;DHT22;57944;48.722;9.316;2023-01-29T07:41:55;-0.10;99.90
70475;DHT22;57944;48.722;9.316;2023-01-29T07:44:29;0.10;99.90
70475;DHT22;57944;48.722;9.316;2023-01-29T07:46:59;0.10;99.90
70475;DHT22;57944;48.722;9.316;2023-01-29T07:49:31;0.30;99.90
70475;DHT22;57944;48.722;9.316;2023-01-29T07:53:16;0.30;99.90
70475;DHT22;57944;48.722;9.316;2023-01-29T07:55:21;0.20;99.90
70475;DHT22;57944;48.722;9.316;2023-01-29T07:57:58;0.10;99.90
70475;DHT22;57944;48.722;9.316;2023-01-29T08:00:34;0.20;99.90
70475;DHT22;57944;48.722;9.316;2023-01-29T08:03:10;0.00;99.90
70475;DHT22;57944;48.722;9.316;2023-01-29T08:05:43;0.10;99.90
70475;DHT22;57944;48.722;9.316;2023-01-29T08:08:13;0.20;99.90
70475;DHT22;57944;48.722;9.316;2023-01-29T08:10:45;0.40;99.90
70475;DHT22;57944;48.722;9.316;2023-01-29T08:13:15;0.40;99.90
70475;DHT22;57944;48.722;9.316;2023-01-29T08:15:48;0.50;99.90
70475;DHT22;57944;48.722;9.316;2023-01-29T08:18:18;0.60;99.90
70475;DHT22;57944;48.722;9.316;2023-01-29T08:20:48;0.70;99.90
70475;DHT22;57944;48.722;9.316;2023-01-29T08:23:19;0.90;99.90
70475;DHT22;57944;48.722;9.316;2023-01-29T08:25:52;1.10;99.90
70475;DHT22;57944;48.722;9.316;2023-01-29T08:28:22;1.00;99.90
70475;DHT22;57944;48.722;9.316;2023-01-29T08:30:55;0.90;99.90
70475;DHT22;57944;48.722;9.316;2023-01-29T08:33:26;0.90;99.90
70475;DHT22;57944;48.722;9.316;2023-01-29T08:36:08;0.80;99.90
70475;DHT22;57944;48.722;9.316;2023-01-29T08:38:39;0.80;99.90
70475;DHT22;57944;48.722;9.316;2023-01-29T08:41:10;0.90;99.90
70475;DHT22;57944;48.722;9.316;2023-01-29T08:43:41;0.70;99.90
70475;DHT22;57944;48.722;9.316;2023-01-29T08:46:15;0.60;99.90
70475;DHT22;57944;48.722;9.316;2023-01-29T08:48:46;0.50;99.90
70475;DHT22;57944;48.722;9.316;2023-01-29T08:51:16;0.50;99.90
70475;DHT22;57944;48.722;9.316;2023-01-29T08:53:46;0.50;99.90
70475;DHT22;57944;48.722;9.316;2023-01-29T08:56:17;0.60;99.90
70475;DHT22;57944;48.722;9.316;2023-01-29T08:58:47;0.70;99.90
70475;DHT22;57944;48.722;9.316;2023-01-29T09:01:20;0.60;99.90
70475;DHT22;57944;48.722;9.316;2023-01-29T09:03:51;0.60;99.90
70475;DHT22;57944;48.722;9.316;2023-01-29T09:06:21;0.50;99.90
70475;DHT22;57944;48.722;9.316;2023-01-29T09:08:52;0.30;99.90
70475;DHT22;57944;48.722;9.316;2023-01-29T09:11:22;0.40;99.90
70475;DHT22;57944;48.722;9.316;2023-01-29T09:13:53;0.40;99.90
70475;DHT22;57944;48.722;9.316;2023-01-29T09:16:25;0.50;99.90
70475;DHT22;57944;48.722;9.316;2023-01-29T09:18:56;0.60;99.90
70475;DHT22;57944;48.722;9.316;2023-01-29T09:21:26;0.80;99.90
70475;DHT22;57944;48.722;9.316;2023-01-29T09:23:56;1.10;99.90
70475;DHT22;57944;48.722;9.316;2023-01-29T09:26:26;1.30;99.90
70475;DHT22;57944;48.722;9.316;2023-01-29T09:28:57;1.40;99.90
70475;DHT22;57944;48.722;9.316;2023-01-29T09:31:30;1.70;99.90
70475;DHT22;57944;48.722;9.316;2023-01-29T09:34:01;1.90;99.90
70475;DHT22;57944;48.722;9.316;2023-01-29T09:36:32;2.00;99.90
70475;DHT22;57944;48.722;9.316;2023-01-29T09:39:02;2.20;99.90
70475;DHT22;57944;48.722;9.316;2023-01-29T09:41:45;2.00;99.90
70475;DHT22;57944;48.722;9.316;2023-01-29T09:44:30;1.90;99.90
70475;DHT22;57944;48.722;9.316;2023-01-29T09:47:26;1.80;99.90
70475;DHT22;57944;48.722;9.316;2023-01-29T09:50:02;1.80;99.90
70475;DHT22;57944;48.722;9.316;2023-01-29T09:52:39;1.90;99.90
70475;DHT22;57944;48.722;9.316;2023-01-29T09:55:20;2.00;99.90
70475;DHT22;57944;48.722;9.316;2023-01-29T09:57:55;2.10;99.90
70475;DHT22;57944;48.722;9.316;2023-01-29T10:00:32;2.10;99.90
70475;DHT22;57944;48.722;9.316;2023-01-29T10:03:23;2.30;99.90
70475;DHT22;57944;48.722;9.316;2023-01-29T10:09:38;2.90;99.90
70475;DHT22;57944;48.722;9.316;2023-01-29T10:16:07;3.70;99.90
70475;DHT22;57944;48.722;9.316;2023-01-29T10:19:08;3.90;99.90
70475;DHT22;57944;48.722;9.316;2023-01-29T10:25:16;4.60;99.90
70475;DHT22;57944;48.722;9.316;2023-01-29T10:27:51;4.80;99.90
70475;DHT22;57944;48.722;9.316;2023-01-29T10:30:29;5.00;99.90
70475;DHT22;57944;48.722;9.316;2023-01-29T10:33:04;5.10;99.90
70475;DHT22;57944;48.722;9.316;2023-01-29T10:35:46;5.30;99.90
70475;DHT22;57944;48.722;9.316;2023-01-29T10:38:30;5.30;99.90
70475;DHT22;57944;48.722;9.316;2023-01-29T10:41:20;5.20;99.90
70475;DHT22;57944;48.722;9.316;2023-01-29T10:44:13;4.90;99.90
70475;DHT22;57944;48.722;9.316;2023-01-29T10:50:12;4.90;99.90
70475;DHT22;57944;48.722;9.316;2023-01-29T10:53:24;5.10;99.90
70475;DHT22;57944;48.722;9.316;2023-01-29T10:56:16;4.70;99.90
70475;DHT22;57944;48.722;9.316;2023-01-29T10:58:59;4.20;99.90
70475;DHT22;57944;48.722;9.316;2023-01-29T11:01:36;4.30;99.90
70475;DHT22;57944;48.722;9.316;2023-01-29T11:04:09;4.00;99.90
70475;DHT22;57944;48.722;9.316;2023-01-29T11:06:41;4.00;99.90
70475;DHT22;57944;48.722;9.316;2023-01-29T11:09:25;4.30;99.90
70475;DHT22;57944;48.722;9.316;2023-01-29T11:12:04;4.60;99.90
70475;DHT22;57944;48.722;9.316;2023-01-29T11:14:44;4.90;99.90
70475;DHT22;57944;48.722;9.316;2023-01-29T11:17:21;4.70;99.90
70475;DHT22;57944;48.722;9.316;2023-01-29T11:19:54;4.70;99.90
70475;DHT22;57944;48.722;9.316;2023-01-29T11:22:28;4.90;99.90
70475;DHT22;57944;48.722;9.316;2023-01-29T11:25:14;5.10;99.90
70475;DHT22;57944;48.722;9.316;2023-01-29T11:27:51;5.30;99.90
70475;DHT22;57944;48.722;9.316;2023-01-29T11:30:26;5.20;99.90
70475;DHT22;57944;48.722;9.316;2023-01-29T11:33:07;5.30;99.90
70475;DHT22;57944;48.722;9.316;2023-01-29T11:35:41;5.00;99.90
70475;DHT22;57944;48.722;9.316;2023-01-29T11:38:18;4.90;99.90
70475;DHT22;57944;48.722;9.316;2023-01-29T11:41:04;5.10;99.90
70475;DHT22;57944;48.722;9.316;2023-01-29T11:43:36;5.30;99.90
70475;DHT22;57944;48.722;9.316;2023-01-29T11:46:13;5.40;99.90
70475;DHT22;57944;48.722;9.316;2023-01-29T11:48:46;5.40;99.90
70475;DHT22;57944;48.722;9.316;2023-01-29T11:51:32;5.40;99.90
70475;DHT22;57944;48.722;9.316;2023-01-29T11:54:04;5.50;99.90
70475;DHT22;57944;48.722;9.316;2023-01-29T11:56:40;5.00;99.90
70475;DHT22;57944;48.722;9.316;2023-01-29T11:59:33;4.90;99.90
70475;DHT22;57944;48.722;9.316;2023-01-29T12:02:18;5.00;99.90
70475;DHT22;57944;48.722;9.316;2023-01-29T12:05:02;5.10;99.90
70475;DHT22;57944;48.722;9.316;2023-01-29T12:07:40;5.10;99.90
70475;DHT22;57944;48.722;9.316;2023-01-29T12:10:30;5.20;99.90
70475;DHT22;57944;48.722;9.316;2023-01-29T12:13:23;5.50;99.90
70475;DHT22;57944;48.722;9.316;2023-01-29T12:16:12;5.50;99.90
70475;DHT22;57944;48.722;9.316;2023-01-29T12:18:51;5.70;99.90
70475;DHT22;57944;48.722;9.316;2023-01-29T12:21:30;5.70;99.90
70475;DHT22;57944;48.722;9.316;2023-01-29T12:24:11;5.00;99.90
70475;DHT22;57944;48.722;9.316;2023-01-29T12:26:56;4.70;99.90
70475;DHT22;57944;48.722;9.316;2023-01-29T12:29:44;4.50;99.90
70475;DHT22;57944;48.722;9.316;2023-01-29T12:32:27;4.60;99.90
70475;DHT22;57944;48.722;9.316;2023-01-29T12:35:10;4.70;99.90
70475;DHT22;57944;48.722;9.316;2023-01-29T12:37:50;4.60;99.90
70475;DHT22;57944;48.722;9.316;2023-01-29T12:40:30;4.50;99.90
70475;DHT22;57944;48.722;9.316;2023-01-29T12:43:13;4.30;99.90
70475;DHT22;57944;48.722;9.316;2023-01-29T12:45:51;4.30;99.90
70475;DHT22;57944;48.722;9.316;2023-01-29T12:48:26;4.30;99.90
70475;DHT22;57944;48.722;9.316;2023-01-29T12:51:05;4.20;99.90
70475;DHT22;57944;48.722;9.316;2023-01-29T12:53:42;4.30;99.90
70475;DHT22;57944;48.722;9.316;2023-01-29T12:56:24;4.40;99.90
70475;DHT22;57944;48.722;9.316;2023-01-29T12:59:00;4.50;99.90
70475;DHT22;57944;48.722;9.316;2023-01-29T13:01:46;4.30;99.90
70475;DHT22;57944;48.722;9.316;2023-01-29T13:04:29;4.40;99.90
70475;DHT22;57944;48.722;9.316;2023-01-29T13:07:10;4.20;99.90
70475;DHT22;57944;48.722;9.316;2023-01-29T13:09:47;4.30;99.90
70475;DHT22;57944;48.722;9.316;2023-01-29T13:12:20;4.50;99.90
70475;DHT22;57944;48.722;9.316;2023-01-29T13:14:55;4.70;99.90
70475;DHT22;57944;48.722;9.316;2023-01-29T13:17:35;4.60;99.90
70475;DHT22;57944;48.722;9.316;2023-01-29T13:20:12;4.20;99.90
70475;DHT22;57944;48.722;9.316;2023-01-29T13:22:49;4.00;99.90
70475;DHT22;57944;48.722;9.316;2023-01-29T13:25:23;3.80;99.90
70475;DHT22;57944;48.722;9.316;2023-01-29T13:27:53;3.70;99.90
70475;DHT22;57944;48.722;9.316;2023-01-29T13:30:29;3.80;99.90
70475;DHT22;57944;48.722;9.316;2023-01-29T13:33:04;4.00;99.90
70475;DHT22;57944;48.722;9.316;2023-01-29T13:35:41;4.10;99.90
70475;DHT22;57944;48.722;9.316;2023-01-29T13:38:23;4.20;99.90
70475;DHT22;57944;48.722;9.316;2023-01-29T13:41:00;4.30;99.90
70475;DHT22;57944;48.722;9.316;2023-01-29T13:43:36;4.30;99.90
70475;DHT22;57944;48.722;9.316;2023-01-29T13:46:10;4.30;99.90
70475;DHT22;57944;48.722;9.316;2023-01-29T13:48:48;4.40;99.90
70475;DHT22;57944;48.722;9.316;2023-01-29T13:51:24;4.60;99.90
70475;DHT22;57944;48.722;9.316;2023-01-29T13:54:02;4.80;99.90
70475;DHT22;57944;48.722;9.316;2023-01-29T13:56:44;5.00;99.90
70475;DHT22;57944;48.722;9.316;2023-01-29T13:59:50;5.00;99.90
70475;DHT22;57944;48.722;9.316;2023-01-29T14:02:25;5.00;99.90
70475;DHT22;57944;48.722;9.316;2023-01-29T14:08:37;5.10;99.90
70475;DHT22;57944;48.722;9.316;2023-01-29T14:11:32;4.90;99.90
70475;DHT22;57944;48.722;9.316;2023-01-29T14:17:34;4.90;99.90
70475;DHT22;57944;48.722;9.316;2023-01-29T14:20:17;4.80;99.90
70475;DHT22;57944;48.722;9.316;2023-01-29T14:22:58;4.90;99.90
70475;DHT22;57944;48.722;9.316;2023-01-29T14:25:36;4.70;99.90
70475;DHT22;57944;48.722;9.316;2023-01-29T14:28:15;4.60;99.90
70475;DHT22;57944;48.722;9.316;2023-01-29T14:30:51;4.50;99.90
70475;DHT22;57944;48.722;9.316;2023-01-29T14:33:27;4.60;99.90
70475;DHT22;57944;48.722;9.316;2023-01-29T14:36:05;4.70;99.90
70475;DHT22;57944;48.722;9.316;2023-01-29T14:38:46;4.80;99.90
70475;DHT22;57944;48.722;9.316;2023-01-29T14:41:25;4.80;99.90
70475;DHT22;57944;48.722;9.316;2023-01-29T14:47:18;4.40;99.90
70475;DHT22;57944;48.722;9.316;2023-01-29T14:49:50;4.40;99.90
70475;DHT22;57944;48.722;9.316;2023-01-29T14:52:25;4.10;99.90
70475;DHT22;57944;48.722;9.316;2023-01-29T14:55:06;3.90;99.90
70475;DHT22;57944;48.722;9.316;2023-01-29T14:57:45;3.70;99.90
70475;DHT22;57944;48.722;9.316;2023-01-29T15:00:21;3.30;99.90
70475;DHT22;57944;48.722;9.316;2023-01-29T15:02:59;3.20;99.90
70475;DHT22;57944;48.722;9.316;2023-01-29T15:05:35;3.00;99.90
70475;DHT22;57944;48.722;9.316;2023-01-29T15:08:17;2.80;99.90
70475;DHT22;57944;48.722;9.316;2023-01-29T15:11:02;2.70;99.90
70475;DHT22;57944;48.722;9.316;2023-01-29T15:13:54;2.70;99.90
70475;DHT22;57944;48.722;9.316;2023-01-29T15:16:33;2.60;99.90
70475;DHT22;57944;48.722;9.316;2023-01-29T15:19:13;2.60;99.90
70475;DHT22;57944;48.722;9.316;2023-01-29T15:22:05;2.60;99.90
70475;DHT22;57944;48.722;9.316;2023-01-29T15:24:41;2.50;99.90
70475;DHT22;57944;48.722;9.316;2023-01-29T15:27:17;2.20;99.90
70475;DHT22;57944;48.722;9.316;2023-01-29T15:29:55;2.10;99.90
70475;DHT22;57944;48.722;9.316;2023-01-29T15:32:32;2.00;99.90
70475;DHT22;57944;48.722;9.316;2023-01-29T15:35:07;1.90;99.90
70475;DHT22;57944;48.722;9.316;2023-01-29T15:37:39;1.90;99.90
70475;DHT22;57944;48.722;9.316;2023-01-29T15:40:14;1.70;99.90
70475;DHT22;57944;48.722;9.316;2023-01-29T15:42:48;1.40;99.90
70475;DHT22;57944;48.722;9.316;2023-01-29T15:45:25;1.20;99.90
70475;DHT22;57944;48.722;9.316;2023-01-29T15:48:02;1.10;99.90
70475;DHT22;57944;48.722;9.316;2023-01-29T15:50:36;1.10;99.90
70475;DHT22;57944;48.722;9.316;2023-01-29T15:53:14;1.00;99.90
70475;DHT22;57944;48.722;9.316;2023-01-29T15:55:48;0.90;99.90
70475;DHT22;57944;48.722;9.316;2023-01-29T15:58:28;0.80;99.90
70475;DHT22;57944;48.722;9.316;2023-01-29T16:01:01;0.70;99.90
70475;DHT22;57944;48.722;9.316;2023-01-29T16:03:33;0.60;99.90
70475;DHT22;57944;48.722;9.316;2023-01-29T16:06:05;0.50;99.90
70475;DHT22;57944;48.722;9.316;2023-01-29T16:08:37;0.50;99.90
70475;DHT22;57944;48.722;9.316;2023-01-29T16:11:10;0.40;99.90
70475;DHT22;57944;48.722;9.316;2023-01-29T16:13:43;0.20;99.90
70475;DHT22;57944;48.722;9.316;2023-01-29T16:16:20;0.10;99.90
70475;DHT22;57944;48.722;9.316;2023-01-29T16:18:54;0.10;99.90
70475;DHT22;57944;48.722;9.316;2023-01-29T16:21:29;0.10;99.90
70475;DHT22;57944;48.722;9.316;2023-01-29T16:24:06;0.00;99.90
70475;DHT22;57944;48.722;9.316;2023-01-29T16:26:42;-0.10;99.90
70475;DHT22;57944;48.722;9.316;2023-01-29T16:29:19;-0.20;99.90
70475;DHT22;57944;48.722;9.316;2023-01-29T16:31:52;-0.40;99.90
70475;DHT22;57944;48.722;9.316;2023-01-29T16:34:30;-0.40;99.90
70475;DHT22;57944;48.722;9.316;2023-01-29T16:37:05;-0.40;99.90
70475;DHT22;57944;48.722;9.316;2023-01-29T16:39:47;-0.60;99.90
70475;DHT22;57944;48.722;9.316;2023-01-29T16:42:22;-0.60;99.90
70475;DHT22;57944;48.722;9.316;2023-01-29T16:44:59;-0.70;99.90
70475;DHT22;57944;48.722;9.316;2023-01-29T16:47:34;-0.80;99.90
70475;DHT22;57944;48.722;9.316;2023-01-29T16:50:25;-0.90;99.90
70475;DHT22;57944;48.722;9.316;2023-01-29T16:53:20;-1.10;99.90
70475;DHT22;57944;48.722;9.316;2023-01-29T16:55:53;-1.30;99.90
70475;DHT22;57944;48.722;9.316;2023-01-29T16:58:32;-1.50;99.90
70475;DHT22;57944;48.722;9.316;2023-01-29T17:01:08;-1.50;99.90
70475;DHT22;57944;48.722;9.316;2023-01-29T17:03:40;-1.30;99.90
70475;DHT22;57944;48.722;9.316;2023-01-29T17:06:12;-1.30;99.90
70475;DHT22;57944;48.722;9.316;2023-01-29T17:08:49;-1.30;99.90
70475;DHT22;57944;48.722;9.316;2023-01-29T17:11:29;-1.40;99.90